sensor_id;sensor_type;location;lat;lon;timestamp;temperature;humidity
69208;SHT31;56321;47.662;8.878;2023-03-01T00:01:11;2.67;63.21
69208;SHT31;56321;47.662;8.878;2023-03-01T00:03:37;2.69;63.43
69208;SHT31;56321;47.662;8.878;2023-03-01T00:06:03;2.73;63.39
69208;SHT31;56321;47.662;8.878;2023-03-01T00:08:29;2.77;63.42
69208;SHT31;56321;47.662;8.878;2023-03-01T00:13:26;2.79;63.16
69208;SHT31;56321;47.662;8.878;2023-03-01T00:15:52;2.80;63.01
69208;SHT31;56321;47.662;8.878;2023-03-01T00:18:17;2.76;63.14
69208;SHT31;56321;47.662;8.878;2023-03-01T00:20:49;2.77;62.93
69208;SHT31;56321;47.662;8.878;2023-03-01T00:23:15;2.79;62.97
69208;SHT31;56321;47.662;8.878;2023-03-01T00:25:43;2.79;63.03
69208;SHT31;56321;47.662;8.878;2023-03-01T00:28:08;2.79;63.10
69208;SHT31;56321;47.662;8.878;2023-03-01T00:30:34;2.80;63.08
69208;SHT31;56321;47.662;8.878;2023-03-01T00:32:59;2.83;63.02
69208;SHT31;56321;47.662;8.878;2023-03-01T00:35:24;2.86;62.91
69208;SHT31;56321;47.662;8.878;2023-03-01T00:37:50;2.87;62.89
69208;SHT31;56321;47.662;8.878;2023-03-01T00:40:23;2.87;62.73
69208;SHT31;56321;47.662;8.878;2023-03-01T00:42:49;2.86;62.79
69208;SHT31;56321;47.662;8.878;2023-03-01T00:45:15;2.84;62.68
69208;SHT31;56321;47.662;8.878;2023-03-01T00:47:40;2.81;62.84
69208;SHT31;56321;47.662;8.878;2023-03-01T00:50:06;2.84;62.85
69208;SHT31;56321;47.662;8.878;2023-03-01T00:52:31;2.88;62.98
69208;SHT31;56321;47.662;8.878;2023-03-01T00:54:56;2.91;62.94
69208;SHT31;56321;47.662;8.878;2023-03-01T00:57:23;2.94;62.87
69208;SHT31;56321;47.662;8.878;2023-03-01T00:59:48;2.98;62.89
69208;SHT31;56321;47.662;8.878;2023-03-01T01:02:13;2.97;62.68
69208;SHT31;56321;47.662;8.878;2023-03-01T01:04:39;2.97;62.83
69208;SHT31;56321;47.662;8.878;2023-03-01T01:07:04;3.00;62.83
69208;SHT31;56321;47.662;8.878;2023-03-01T01:09:31;3.03;62.86
69208;SHT31;56321;47.662;8.878;2023-03-01T01:11:56;3.00;62.45
69208;SHT31;56321;47.662;8.878;2023-03-01T01:14:21;2.91;62.52
69208;SHT31;56321;47.662;8.878;2023-03-01T01:16:47;2.83;62.71
69208;SHT31;56321;47.662;8.878;2023-03-01T01:19:13;2.80;62.87
69208;SHT31;56321;47.662;8.878;2023-03-01T01:21:38;2.83;63.03
69208;SHT31;56321;47.662;8.878;2023-03-01T01:24:04;2.83;63.05
69208;SHT31;56321;47.662;8.878;2023-03-01T01:26:33;2.86;62.86
69208;SHT31;56321;47.662;8.878;2023-03-01T01:28:59;2.83;62.74
69208;SHT31;56321;47.662;8.878;2023-03-01T01:31:25;2.81;62.91
69208;SHT31;56321;47.662;8.878;2023-03-01T01:33:52;2.77;62.98
69208;SHT31;56321;47.662;8.878;2023-03-01T01:36:17;2.80;63.01
69208;SHT31;56321;47.662;8.878;2023-03-01T01:38:43;2.77;62.92
69208;SHT31;56321;47.662;8.878;2023-03-01T01:41:10;2.75;62.87
69208;SHT31;56321;47.662;8.878;2023-03-01T01:43:42;2.72;62.95
69208;SHT31;56321;47.662;8.878;2023-03-01T01:46:32;2.67;63.19
69208;SHT31;56321;47.662;8.878;2023-03-01T01:49:02;2.69;63.25
69208;SHT31;56321;47.662;8.878;2023-03-01T01:51:32;2.76;63.35
69208;SHT31;56321;47.662;8.878;2023-03-01T01:54:08;2.75;63.18
69208;SHT31;56321;47.662;8.878;2023-03-01T01:56:36;2.69;63.12
69208;SHT31;56321;47.662;8.878;2023-03-01T01:59:02;2.64;63.15
69208;SHT31;56321;47.662;8.878;2023-03-01T02:01:27;2.64;63.29
69208;SHT31;56321;47.662;8.878;2023-03-01T02:03:53;2.66;63.49
69208;SHT31;56321;47.662;8.878;2023-03-01T02:06:38;2.67;63.36
69208;SHT31;56321;47.662;8.878;2023-03-01T02:09:08;2.73;63.39
69208;SHT31;56321;47.662;8.878;2023-03-01T02:11:36;2.73;63.34
69208;SHT31;56321;47.662;8.878;2023-03-01T02:14:03;2.76;63.33
69208;SHT31;56321;47.662;8.878;2023-03-01T02:16:29;2.75;63.33
69208;SHT31;56321;47.662;8.878;2023-03-01T02:18:54;2.77;63.36
69208;SHT31;56321;47.662;8.878;2023-03-01T02:23:56;2.81;63.53
69208;SHT31;56321;47.662;8.878;2023-03-01T02:28:59;2.90;63.49
69208;SHT31;56321;47.662;8.878;2023-03-01T02:31:24;2.91;63.43
69208;SHT31;56321;47.662;8.878;2023-03-01T02:34:11;2.98;63.38
69208;SHT31;56321;47.662;8.878;2023-03-01T02:36:39;3.00;63.33
69208;SHT31;56321;47.662;8.878;2023-03-01T02:39:08;3.00;63.25
69208;SHT31;56321;47.662;8.878;2023-03-01T02:41:41;2.90;63.33
69208;SHT31;56321;47.662;8.878;2023-03-01T02:44:08;2.88;63.31
69208;SHT31;56321;47.662;8.878;2023-03-01T02:46:33;2.83;63.41
69208;SHT31;56321;47.662;8.878;2023-03-01T02:48:59;2.80;63.42
69208;SHT31;56321;47.662;8.878;2023-03-01T02:56:43;2.88;63.65
69208;SHT31;56321;47.662;8.878;2023-03-01T02:59:09;2.90;63.65
69208;SHT31;56321;47.662;8.878;2023-03-01T03:01:35;2.97;63.74
69208;SHT31;56321;47.662;8.878;2023-03-01T03:04:09;3.00;63.60
69208;SHT31;56321;47.662;8.878;2023-03-01T03:06:35;3.01;63.47
69208;SHT31;56321;47.662;8.878;2023-03-01T03:09:02;3.01;63.50
69208;SHT31;56321;47.662;8.878;2023-03-01T03:11:28;3.03;63.61
69208;SHT31;56321;47.662;8.878;2023-03-01T03:13:54;3.04;63.65
69208;SHT31;56321;47.662;8.878;2023-03-01T03:16:20;3.04;63.54
69208;SHT31;56321;47.662;8.878;2023-03-01T03:18:45;3.07;63.51
69208;SHT31;56321;47.662;8.878;2023-03-01T03:21:12;3.05;63.45
69208;SHT31;56321;47.662;8.878;2023-03-01T03:23:38;3.08;63.54
69208;SHT31;56321;47.662;8.878;2023-03-01T03:26:04;3.05;63.53
69208;SHT31;56321;47.662;8.878;2023-03-01T03:28:31;3.04;63.60
69208;SHT31;56321;47.662;8.878;2023-03-01T03:30:56;3.07;63.38
69208;SHT31;56321;47.662;8.878;2023-03-01T03:33:21;3.01;63.40
69208;SHT31;56321;47.662;8.878;2023-03-01T03:35:48;3.03;63.56
69208;SHT31;56321;47.662;8.878;2023-03-01T03:38:16;3.05;63.60
69208;SHT31;56321;47.662;8.878;2023-03-01T03:40:47;3.07;63.56
69208;SHT31;56321;47.662;8.878;2023-03-01T03:43:15;3.07;63.49
69208;SHT31;56321;47.662;8.878;2023-03-01T03:45:41;3.08;63.43
69208;SHT31;56321;47.662;8.878;2023-03-01T03:48:09;3.03;63.36
69208;SHT31;56321;47.662;8.878;2023-03-01T03:50:35;2.93;63.56
69208;SHT31;56321;47.662;8.878;2023-03-01T03:53:03;2.90;63.57
69208;SHT31;56321;47.662;8.878;2023-03-01T03:55:28;2.90;63.76
69208;SHT31;56321;47.662;8.878;2023-03-01T03:57:57;2.90;63.76
69208;SHT31;56321;47.662;8.878;2023-03-01T04:00:23;2.88;63.80
69208;SHT31;56321;47.662;8.878;2023-03-01T04:02:50;2.93;63.98
69208;SHT31;56321;47.662;8.878;2023-03-01T04:05:17;3.01;63.99
69208;SHT31;56321;47.662;8.878;2023-03-01T04:07:43;3.07;63.77
69208;SHT31;56321;47.662;8.878;2023-03-01T04:10:11;3.08;63.61
69208;SHT31;56321;47.662;8.878;2023-03-01T04:12:37;3.08;63.60
69208;SHT31;56321;47.662;8.878;2023-03-01T04:15:04;3.04;63.61
69208;SHT31;56321;47.662;8.878;2023-03-01T04:17:40;3.05;63.63
69208;SHT31;56321;47.662;8.878;2023-03-01T04:20:08;3.05;63.68
69208;SHT31;56321;47.662;8.878;2023-03-01T04:22:34;3.05;63.77
69208;SHT31;56321;47.662;8.878;2023-03-01T04:25:00;3.07;63.75
69208;SHT31;56321;47.662;8.878;2023-03-01T04:27:35;3.04;63.60
69208;SHT31;56321;47.662;8.878;2023-03-01T04:30:01;3.03;63.67
69208;SHT31;56321;47.662;8.878;2023-03-01T04:32:27;3.00;63.62
69208;SHT31;56321;47.662;8.878;2023-03-01T04:34:52;2.97;63.82
69208;SHT31;56321;47.662;8.878;2023-03-01T04:37:18;3.00;63.89
69208;SHT31;56321;47.662;8.878;2023-03-01T04:39:43;3.03;63.81
69208;SHT31;56321;47.662;8.878;2023-03-01T04:42:11;3.04;63.93
69208;SHT31;56321;47.662;8.878;2023-03-01T04:44:36;3.04;63.71
69208;SHT31;56321;47.662;8.878;2023-03-01T04:47:01;3.03;63.87
69208;SHT31;56321;47.662;8.878;2023-03-01T04:49:26;3.00;63.74
69208;SHT31;56321;47.662;8.878;2023-03-01T04:51:52;2.94;63.77
69208;SHT31;56321;47.662;8.878;2023-03-01T04:54:17;2.88;63.93
69208;SHT31;56321;47.662;8.878;2023-03-01T04:56:42;2.87;64.08
69208;SHT31;56321;47.662;8.878;2023-03-01T04:59:08;2.90;64.18
69208;SHT31;56321;47.662;8.878;2023-03-01T05:01:35;2.91;64.12
69208;SHT31;56321;47.662;8.878;2023-03-01T05:04:00;2.93;64.12
69208;SHT31;56321;47.662;8.878;2023-03-01T05:06:28;2.94;64.05
69208;SHT31;56321;47.662;8.878;2023-03-01T05:08:53;2.93;64.12
69208;SHT31;56321;47.662;8.878;2023-03-01T05:11:19;2.98;64.21
69208;SHT31;56321;47.662;8.878;2023-03-01T05:13:44;2.97;64.14
69208;SHT31;56321;47.662;8.878;2023-03-01T05:16:10;2.94;64.20
69208;SHT31;56321;47.662;8.878;2023-03-01T05:18:36;2.94;64.13
69208;SHT31;56321;47.662;8.878;2023-03-01T05:21:05;2.94;64.23
69208;SHT31;56321;47.662;8.878;2023-03-01T05:23:31;2.93;64.19
69208;SHT31;56321;47.662;8.878;2023-03-01T05:25:58;2.90;64.30
69208;SHT31;56321;47.662;8.878;2023-03-01T05:28:25;2.90;64.30
69208;SHT31;56321;47.662;8.878;2023-03-01T05:30:50;2.86;64.30
69208;SHT31;56321;47.662;8.878;2023-03-01T05:33:16;2.84;64.36
69208;SHT31;56321;47.662;8.878;2023-03-01T05:35:43;2.86;64.58
69208;SHT31;56321;47.662;8.878;2023-03-01T05:38:10;2.81;64.49
69208;SHT31;56321;47.662;8.878;2023-03-01T05:40:39;2.81;64.54
69208;SHT31;56321;47.662;8.878;2023-03-01T05:43:05;2.81;64.60
69208;SHT31;56321;47.662;8.878;2023-03-01T05:45:31;2.79;64.53
69208;SHT31;56321;47.662;8.878;2023-03-01T05:47:58;2.80;64.76
69208;SHT31;56321;47.662;8.878;2023-03-01T05:50:28;2.84;64.78
69208;SHT31;56321;47.662;8.878;2023-03-01T05:52:59;2.87;64.71
69208;SHT31;56321;47.662;8.878;2023-03-01T05:55:25;2.86;64.71
69208;SHT31;56321;47.662;8.878;2023-03-01T05:57:50;2.90;64.69
69208;SHT31;56321;47.662;8.878;2023-03-01T06:00:19;2.94;64.62
69208;SHT31;56321;47.662;8.878;2023-03-01T06:02:44;2.96;64.67
69208;SHT31;56321;47.662;8.878;2023-03-01T06:05:12;2.98;64.55
69208;SHT31;56321;47.662;8.878;2023-03-01T06:07:38;2.91;64.58
69208;SHT31;56321;47.662;8.878;2023-03-01T06:10:04;2.91;64.58
69208;SHT31;56321;47.662;8.878;2023-03-01T06:12:34;2.88;64.56
69208;SHT31;56321;47.662;8.878;2023-03-01T06:15:01;2.88;64.63
69208;SHT31;56321;47.662;8.878;2023-03-01T06:17:29;2.88;64.70
69208;SHT31;56321;47.662;8.878;2023-03-01T06:19:55;2.90;64.73
69208;SHT31;56321;47.662;8.878;2023-03-01T06:22:20;2.90;64.71
69208;SHT31;56321;47.662;8.878;2023-03-01T06:24:45;2.88;64.77
69208;SHT31;56321;47.662;8.878;2023-03-01T06:27:11;2.91;64.81
69208;SHT31;56321;47.662;8.878;2023-03-01T06:29:36;2.91;64.62
69208;SHT31;56321;47.662;8.878;2023-03-01T06:32:02;2.87;64.64
69208;SHT31;56321;47.662;8.878;2023-03-01T06:34:28;2.81;64.82
69208;SHT31;56321;47.662;8.878;2023-03-01T06:36:53;2.84;64.87
69208;SHT31;56321;47.662;8.878;2023-03-01T06:39:18;2.83;64.91
69208;SHT31;56321;47.662;8.878;2023-03-01T06:41:44;2.84;64.97
69208;SHT31;56321;47.662;8.878;2023-03-01T06:44:09;2.83;64.84
69208;SHT31;56321;47.662;8.878;2023-03-01T06:46:35;2.84;64.83
69208;SHT31;56321;47.662;8.878;2023-03-01T06:49:01;2.84;65.09
69208;SHT31;56321;47.662;8.878;2023-03-01T06:51:29;2.90;64.97
69208;SHT31;56321;47.662;8.878;2023-03-01T06:53:55;2.94;64.92
69208;SHT31;56321;47.662;8.878;2023-03-01T06:56:20;2.96;64.95
69208;SHT31;56321;47.662;8.878;2023-03-01T06:58:45;3.00;64.91
69208;SHT31;56321;47.662;8.878;2023-03-01T07:01:11;3.04;64.89
69208;SHT31;56321;47.662;8.878;2023-03-01T07:03:36;3.07;64.57
69208;SHT31;56321;47.662;8.878;2023-03-01T07:06:01;3.01;64.61
69208;SHT31;56321;47.662;8.878;2023-03-01T07:08:27;3.00;64.85
69208;SHT31;56321;47.662;8.878;2023-03-01T07:10:58;3.03;64.73
69208;SHT31;56321;47.662;8.878;2023-03-01T07:13:24;3.04;64.74
69208;SHT31;56321;47.662;8.878;2023-03-01T07:15:49;3.04;64.74
69208;SHT31;56321;47.662;8.878;2023-03-01T07:18:15;3.08;64.81
69208;SHT31;56321;47.662;8.878;2023-03-01T07:20:40;3.09;64.72
69208;SHT31;56321;47.662;8.878;2023-03-01T07:23:06;3.09;64.68
69208;SHT31;56321;47.662;8.878;2023-03-01T07:25:31;3.07;64.54
69208;SHT31;56321;47.662;8.878;2023-03-01T07:27:57;3.05;64.79
69208;SHT31;56321;47.662;8.878;2023-03-01T07:30:23;3.08;65.07
69208;SHT31;56321;47.662;8.878;2023-03-01T07:32:51;3.12;64.71
69208;SHT31;56321;47.662;8.878;2023-03-01T07:35:17;3.17;64.75
69208;SHT31;56321;47.662;8.878;2023-03-01T07:37:42;3.17;64.63
69208;SHT31;56321;47.662;8.878;2023-03-01T07:40:08;3.21;64.78
69208;SHT31;56321;47.662;8.878;2023-03-01T07:42:34;3.22;64.68
69208;SHT31;56321;47.662;8.878;2023-03-01T07:44:59;3.25;64.61
69208;SHT31;56321;47.662;8.878;2023-03-01T07:47:25;3.25;64.48
69208;SHT31;56321;47.662;8.878;2023-03-01T07:49:50;3.24;64.55
69208;SHT31;56321;47.662;8.878;2023-03-01T07:52:15;3.22;64.40
69208;SHT31;56321;47.662;8.878;2023-03-01T07:54:42;3.19;64.39
69208;SHT31;56321;47.662;8.878;2023-03-01T07:57:09;3.15;64.45
69208;SHT31;56321;47.662;8.878;2023-03-01T07:59:34;3.11;64.39
69208;SHT31;56321;47.662;8.878;2023-03-01T08:02:00;3.05;64.65
69208;SHT31;56321;47.662;8.878;2023-03-01T08:04:25;3.08;64.85
69208;SHT31;56321;47.662;8.878;2023-03-01T08:06:52;3.09;64.65
69208;SHT31;56321;47.662;8.878;2023-03-01T08:09:17;3.11;64.62
69208;SHT31;56321;47.662;8.878;2023-03-01T08:11:42;3.11;64.73
69208;SHT31;56321;47.662;8.878;2023-03-01T08:14:08;3.17;64.61
69208;SHT31;56321;47.662;8.878;2023-03-01T08:16:33;3.17;64.52
69208;SHT31;56321;47.662;8.878;2023-03-01T08:19:07;3.17;64.50
69208;SHT31;56321;47.662;8.878;2023-03-01T08:21:33;3.18;64.63
69208;SHT31;56321;47.662;8.878;2023-03-01T08:24:02;3.22;64.68
69208;SHT31;56321;47.662;8.878;2023-03-01T08:26:29;3.29;64.66
69208;SHT31;56321;47.662;8.878;2023-03-01T08:28:54;3.32;64.58
69208;SHT31;56321;47.662;8.878;2023-03-01T08:31:28;3.35;64.25
69208;SHT31;56321;47.662;8.878;2023-03-01T08:33:57;3.35;64.26
69208;SHT31;56321;47.662;8.878;2023-03-01T08:36:24;3.36;64.20
69208;SHT31;56321;47.662;8.878;2023-03-01T08:38:50;3.38;64.27
69208;SHT31;56321;47.662;8.878;2023-03-01T08:41:16;3.43;64.27
69208;SHT31;56321;47.662;8.878;2023-03-01T08:43:41;3.48;64.40
69208;SHT31;56321;47.662;8.878;2023-03-01T08:46:06;3.56;64.51
69208;SHT31;56321;47.662;8.878;2023-03-01T08:48:32;3.62;64.19
69208;SHT31;56321;47.662;8.878;2023-03-01T08:51:07;3.66;64.09
69208;SHT31;56321;47.662;8.878;2023-03-01T08:53:32;3.69;63.93
69208;SHT31;56321;47.662;8.878;2023-03-01T08:56:00;3.70;63.72
69208;SHT31;56321;47.662;8.878;2023-03-01T08:58:25;3.69;63.65
69208;SHT31;56321;47.662;8.878;2023-03-01T09:00:50;3.66;63.40
69208;SHT31;56321;47.662;8.878;2023-03-01T09:03:16;3.59;63.52
69208;SHT31;56321;47.662;8.878;2023-03-01T09:05:41;3.55;63.60
69208;SHT31;56321;47.662;8.878;2023-03-01T09:08:06;3.49;63.66
69208;SHT31;56321;47.662;8.878;2023-03-01T09:10:37;3.48;63.88
69208;SHT31;56321;47.662;8.878;2023-03-01T09:13:02;3.52;63.88
69208;SHT31;56321;47.662;8.878;2023-03-01T09:15:28;3.53;63.80
69208;SHT31;56321;47.662;8.878;2023-03-01T09:17:53;3.53;63.79
69208;SHT31;56321;47.662;8.878;2023-03-01T09:20:18;3.49;63.60
69208;SHT31;56321;47.662;8.878;2023-03-01T09:22:44;3.49;63.96
69208;SHT31;56321;47.662;8.878;2023-03-01T09:25:09;3.53;64.12
69208;SHT31;56321;47.662;8.878;2023-03-01T09:27:34;3.60;63.96
69208;SHT31;56321;47.662;8.878;2023-03-01T09:30:00;3.66;63.74
69208;SHT31;56321;47.662;8.878;2023-03-01T09:32:25;3.65;63.43
69208;SHT31;56321;47.662;8.878;2023-03-01T09:34:51;3.63;63.64
69208;SHT31;56321;47.662;8.878;2023-03-01T09:37:32;3.65;63.56
69208;SHT31;56321;47.662;8.878;2023-03-01T09:39:58;3.69;63.77
69208;SHT31;56321;47.662;8.878;2023-03-01T09:42:24;3.70;63.67
69208;SHT31;56321;47.662;8.878;2023-03-01T09:44:54;3.73;63.66
69208;SHT31;56321;47.662;8.878;2023-03-01T09:47:25;3.77;63.46
69208;SHT31;56321;47.662;8.878;2023-03-01T09:50:15;3.76;63.55
69208;SHT31;56321;47.662;8.878;2023-03-01T09:53:02;3.80;63.40
69208;SHT31;56321;47.662;8.878;2023-03-01T09:56:04;3.73;63.32
69208;SHT31;56321;47.662;8.878;2023-03-01T10:01:36;3.73;63.37
69208;SHT31;56321;47.662;8.878;2023-03-01T10:04:28;3.74;63.33
69208;SHT31;56321;47.662;8.878;2023-03-01T10:07:20;3.74;63.30
69208;SHT31;56321;47.662;8.878;2023-03-01T10:09:47;3.77;63.31
69208;SHT31;56321;47.662;8.878;2023-03-01T10:12:16;3.77;63.23
69208;SHT31;56321;47.662;8.878;2023-03-01T10:14:59;3.73;63.01
69208;SHT31;56321;47.662;8.878;2023-03-01T10:17:48;3.70;63.11
69208;SHT31;56321;47.662;8.878;2023-03-01T10:20:25;3.66;63.06
69208;SHT31;56321;47.662;8.878;2023-03-01T10:22:51;3.65;63.18
69208;SHT31;56321;47.662;8.878;2023-03-01T10:28:29;3.69;63.62
69208;SHT31;56321;47.662;8.878;2023-03-01T10:30:57;3.80;63.37
69208;SHT31;56321;47.662;8.878;2023-03-01T10:33:35;3.79;63.11
69208;SHT31;56321;47.662;8.878;2023-03-01T10:36:02;3.82;63.30
69208;SHT31;56321;47.662;8.878;2023-03-01T10:38:30;3.82;63.29
69208;SHT31;56321;47.662;8.878;2023-03-01T10:40:58;3.90;63.34
69208;SHT31;56321;47.662;8.878;2023-03-01T10:43:26;3.95;62.87
69208;SHT31;56321;47.662;8.878;2023-03-01T10:45:52;3.95;62.83
69208;SHT31;56321;47.662;8.878;2023-03-01T10:50:48;3.94;62.75
69208;SHT31;56321;47.662;8.878;2023-03-01T10:53:34;3.91;62.70
69208;SHT31;56321;47.662;8.878;2023-03-01T10:56:14;3.93;62.97
69208;SHT31;56321;47.662;8.878;2023-03-01T10:58:57;3.95;62.80
69208;SHT31;56321;47.662;8.878;2023-03-01T11:04:10;4.00;62.51
69208;SHT31;56321;47.662;8.878;2023-03-01T11:06:38;3.97;62.47
69208;SHT31;56321;47.662;8.878;2023-03-01T11:09:18;4.04;62.82
69208;SHT31;56321;47.662;8.878;2023-03-01T11:11:44;4.08;62.71
69208;SHT31;56321;47.662;8.878;2023-03-01T11:16:39;4.14;62.39
69208;SHT31;56321;47.662;8.878;2023-03-01T11:21:38;4.10;61.87
69208;SHT31;56321;47.662;8.878;2023-03-01T11:24:10;4.04;62.15
69208;SHT31;56321;47.662;8.878;2023-03-01T11:26:39;4.10;62.50
69208;SHT31;56321;47.662;8.878;2023-03-01T11:29:12;4.15;62.55
69208;SHT31;56321;47.662;8.878;2023-03-01T11:31:41;4.15;62.23
69208;SHT31;56321;47.662;8.878;2023-03-01T11:34:20;4.13;61.95
69208;SHT31;56321;47.662;8.878;2023-03-01T11:36:56;4.14;62.10
69208;SHT31;56321;47.662;8.878;2023-03-01T11:42:28;4.11;61.96
69208;SHT31;56321;47.662;8.878;2023-03-01T11:44:58;4.04;61.76
69208;SHT31;56321;47.662;8.878;2023-03-01T11:52:51;3.94;61.98
69208;SHT31;56321;47.662;8.878;2023-03-01T11:55:30;4.03;62.17
69208;SHT31;56321;47.662;8.878;2023-03-01T12:07:20;4.20;61.69
69208;SHT31;56321;47.662;8.878;2023-03-01T12:10:09;4.22;61.57
69208;SHT31;56321;47.662;8.878;2023-03-01T12:29:42;4.21;61.41
69208;SHT31;56321;47.662;8.878;2023-03-01T12:32:24;4.21;61.26
69208;SHT31;56321;47.662;8.878;2023-03-01T12:35:00;4.25;61.43
69208;SHT31;56321;47.662;8.878;2023-03-01T12:37:48;4.27;60.87
69208;SHT31;56321;47.662;8.878;2023-03-01T12:51:12;3.93;60.67
69208;SHT31;56321;47.662;8.878;2023-03-01T12:53:49;3.86;60.94
69208;SHT31;56321;47.662;8.878;2023-03-01T12:56:24;3.80;61.06
69208;SHT31;56321;47.662;8.878;2023-03-01T12:59:16;3.76;61.38
69208;SHT31;56321;47.662;8.878;2023-03-01T13:20:29;3.89;61.20
69208;SHT31;56321;47.662;8.878;2023-03-01T13:23:12;3.89;60.88
69208;SHT31;56321;47.662;8.878;2023-03-01T13:34:02;3.93;61.44
69208;SHT31;56321;47.662;8.878;2023-03-01T13:41:51;4.13;61.01
69208;SHT31;56321;47.662;8.878;2023-03-01T13:46:53;4.25;61.36
69208;SHT31;56321;47.662;8.878;2023-03-01T13:49:23;4.28;60.88
69208;SHT31;56321;47.662;8.878;2023-03-01T13:51:51;4.31;60.90
69208;SHT31;56321;47.662;8.878;2023-03-01T13:54:25;4.28;60.85
69208;SHT31;56321;47.662;8.878;2023-03-01T13:56:51;4.30;60.91
69208;SHT31;56321;47.662;8.878;2023-03-01T13:59:19;4.30;60.91
69208;SHT31;56321;47.662;8.878;2023-03-01T14:01:55;4.28;60.87
69208;SHT31;56321;47.662;8.878;2023-03-01T14:04:27;4.30;61.08
69208;SHT31;56321;47.662;8.878;2023-03-01T14:07:18;4.28;60.68
69208;SHT31;56321;47.662;8.878;2023-03-01T14:09:47;4.25;60.60
69208;SHT31;56321;47.662;8.878;2023-03-01T14:12:39;4.17;60.66
69208;SHT31;56321;47.662;8.878;2023-03-01T14:15:34;4.17;60.88
69208;SHT31;56321;47.662;8.878;2023-03-01T14:18:23;4.17;61.16
69208;SHT31;56321;47.662;8.878;2023-03-01T14:20:49;4.21;61.20
69208;SHT31;56321;47.662;8.878;2023-03-01T14:23:26;4.22;60.70
69208;SHT31;56321;47.662;8.878;2023-03-01T14:25:57;4.18;61.03
69208;SHT31;56321;47.662;8.878;2023-03-01T14:28:26;4.24;61.34
69208;SHT31;56321;47.662;8.878;2023-03-01T14:30:54;4.30;61.31
69208;SHT31;56321;47.662;8.878;2023-03-01T14:33:31;4.38;61.05
69208;SHT31;56321;47.662;8.878;2023-03-01T14:36:07;4.40;61.05
69208;SHT31;56321;47.662;8.878;2023-03-01T14:38:43;4.44;60.88
69208;SHT31;56321;47.662;8.878;2023-03-01T14:41:11;4.49;60.80
69208;SHT31;56321;47.662;8.878;2023-03-01T14:43:50;4.53;60.72
69208;SHT31;56321;47.662;8.878;2023-03-01T14:46:36;4.51;60.51
69208;SHT31;56321;47.662;8.878;2023-03-01T14:49:05;4.51;60.87
69208;SHT31;56321;47.662;8.878;2023-03-01T14:51:38;4.52;60.89
69208;SHT31;56321;47.662;8.878;2023-03-01T14:54:21;4.55;60.55
69208;SHT31;56321;47.662;8.878;2023-03-01T14:56:47;4.55;60.42
69208;SHT31;56321;47.662;8.878;2023-03-01T14:59:12;4.55;60.46
69208;SHT31;56321;47.662;8.878;2023-03-01T15:01:40;4.51;60.32
69208;SHT31;56321;47.662;8.878;2023-03-01T15:04:11;4.44;60.47
69208;SHT31;56321;47.662;8.878;2023-03-01T15:06:37;4.45;60.70
69208;SHT31;56321;47.662;8.878;2023-03-01T15:09:03;4.46;60.68
69208;SHT31;56321;47.662;8.878;2023-03-01T15:11:31;4.52;60.79
69208;SHT31;56321;47.662;8.878;2023-03-01T15:13:57;4.62;60.83
69208;SHT31;56321;47.662;8.878;2023-03-01T15:16:24;4.66;60.71
69208;SHT31;56321;47.662;8.878;2023-03-01T15:19:01;4.66;60.11
69208;SHT31;56321;47.662;8.878;2023-03-01T15:21:36;4.62;60.11
69208;SHT31;56321;47.662;8.878;2023-03-01T15:26:40;4.62;60.20
69208;SHT31;56321;47.662;8.878;2023-03-01T15:29:32;4.53;59.93
69208;SHT31;56321;47.662;8.878;2023-03-01T15:32:04;4.49;60.18
69208;SHT31;56321;47.662;8.878;2023-03-01T15:34:37;4.52;60.44
69208;SHT31;56321;47.662;8.878;2023-03-01T15:37:05;4.49;59.89
69208;SHT31;56321;47.662;8.878;2023-03-01T15:39:43;4.44;59.59
69208;SHT31;56321;47.662;8.878;2023-03-01T15:45:19;4.40;60.36
69208;SHT31;56321;47.662;8.878;2023-03-01T15:47:56;4.45;60.51
69208;SHT31;56321;47.662;8.878;2023-03-01T15:50:36;4.48;60.21
69208;SHT31;56321;47.662;8.878;2023-03-01T15:53:08;4.48;60.34
69208;SHT31;56321;47.662;8.878;2023-03-01T15:55:36;4.53;60.37
69208;SHT31;56321;47.662;8.878;2023-03-01T15:58:09;4.55;60.26
69208;SHT31;56321;47.662;8.878;2023-03-01T16:00:35;4.52;60.19
69208;SHT31;56321;47.662;8.878;2023-03-01T16:03:01;4.51;60.47
69208;SHT31;56321;47.662;8.878;2023-03-01T16:05:31;4.49;60.00
69208;SHT31;56321;47.662;8.878;2023-03-01T16:07:57;4.45;60.30
69208;SHT31;56321;47.662;8.878;2023-03-01T16:10:23;4.42;60.34
69208;SHT31;56321;47.662;8.878;2023-03-01T16:12:49;4.37;60.28
69208;SHT31;56321;47.662;8.878;2023-03-01T16:15:25;4.37;60.64
69208;SHT31;56321;47.662;8.878;2023-03-01T16:17:51;4.31;60.57
69208;SHT31;56321;47.662;8.878;2023-03-01T16:20:17;4.35;60.89
69208;SHT31;56321;47.662;8.878;2023-03-01T16:22:44;4.38;61.02
69208;SHT31;56321;47.662;8.878;2023-03-01T16:25:14;4.40;60.78
69208;SHT31;56321;47.662;8.878;2023-03-01T16:27:44;4.41;60.83
69208;SHT31;56321;47.662;8.878;2023-03-01T16:30:12;4.45;60.80
69208;SHT31;56321;47.662;8.878;2023-03-01T16:32:39;4.45;60.97
69208;SHT31;56321;47.662;8.878;2023-03-01T16:35:05;4.46;60.77
69208;SHT31;56321;47.662;8.878;2023-03-01T16:37:32;4.48;60.49
69208;SHT31;56321;47.662;8.878;2023-03-01T16:39:59;4.41;60.50
69208;SHT31;56321;47.662;8.878;2023-03-01T16:42:24;4.32;60.60
69208;SHT31;56321;47.662;8.878;2023-03-01T16:44:54;4.28;60.93
69208;SHT31;56321;47.662;8.878;2023-03-01T16:47:20;4.28;60.98
69208;SHT31;56321;47.662;8.878;2023-03-01T16:49:46;4.28;61.10
69208;SHT31;56321;47.662;8.878;2023-03-01T16:52:11;4.25;61.06
69208;SHT31;56321;47.662;8.878;2023-03-01T16:54:36;4.25;61.09
69208;SHT31;56321;47.662;8.878;2023-03-01T16:57:02;4.25;61.16
69208;SHT31;56321;47.662;8.878;2023-03-01T16:59:27;4.20;61.40
69208;SHT31;56321;47.662;8.878;2023-03-01T17:01:52;4.25;61.50
69208;SHT31;56321;47.662;8.878;2023-03-01T17:04:18;4.27;61.59
69208;SHT31;56321;47.662;8.878;2023-03-01T17:06:43;4.31;61.52
69208;SHT31;56321;47.662;8.878;2023-03-01T17:09:09;4.30;61.39
69208;SHT31;56321;47.662;8.878;2023-03-01T17:11:35;4.35;61.42
69208;SHT31;56321;47.662;8.878;2023-03-01T17:14:00;4.32;61.42
69208;SHT31;56321;47.662;8.878;2023-03-01T17:16:26;4.34;61.47
69208;SHT31;56321;47.662;8.878;2023-03-01T17:18:52;4.37;61.43
69208;SHT31;56321;47.662;8.878;2023-03-01T17:21:17;4.40;61.59
69208;SHT31;56321;47.662;8.878;2023-03-01T17:23:44;4.40;61.49
69208;SHT31;56321;47.662;8.878;2023-03-01T17:26:10;4.41;61.30
69208;SHT31;56321;47.662;8.878;2023-03-01T17:28:36;4.35;61.43
69208;SHT31;56321;47.662;8.878;2023-03-01T17:31:04;4.32;61.41
69208;SHT31;56321;47.662;8.878;2023-03-01T17:33:30;4.30;61.57
69208;SHT31;56321;47.662;8.878;2023-03-01T17:35:56;4.28;61.65
69208;SHT31;56321;47.662;8.878;2023-03-01T17:38:21;4.28;61.81
69208;SHT31;56321;47.662;8.878;2023-03-01T17:40:47;4.27;61.78
69208;SHT31;56321;47.662;8.878;2023-03-01T17:43:13;4.24;62.01
69208;SHT31;56321;47.662;8.878;2023-03-01T17:45:39;4.30;62.13
69208;SHT31;56321;47.662;8.878;2023-03-01T17:48:06;4.27;61.95
69208;SHT31;56321;47.662;8.878;2023-03-01T17:50:32;4.27;62.00